Observation data for Sundown on 08/13/2019      Previous  Date       Current Mesonet Observations  Soil Data  Daily Summary Page  Observations in Plain Language
KSDS 130500Z 32007KT 23/14 A2997 RMK A01 T02320135  RH  057%=      5-min Rain = 0
KSDS 130505Z 32008KT 23/14 A2997 RMK A01 T02300135  RH  058%=      5-min Rain = 0
KSDS 130510Z 31008KT 23/14 A2997 RMK A01 T02310136  RH  058%=      5-min Rain = 0
KSDS 130515Z 31008KT 23/14 A2997 RMK A01 T02320137  RH  057%=      5-min Rain = 0
KSDS 130520Z 33005KT 23/14 A2997 RMK A01 T02320138  RH  058%=      5-min Rain = 0
KSDS 130525Z 32006KT 23/14 A2997 RMK A01 T02310138  RH  058%=      5-min Rain = 0
KSDS 130530Z 31006KT 23/14 A2997 RMK A01 T02310138  RH  058%=      5-min Rain = 0
KSDS 130535Z 31007KT 23/14 A2997 RMK A01 T02290138  RH  059%=      5-min Rain = 0
KSDS 130540Z 32008KT 23/14 A2997 RMK A01 T02290139  RH  059%=      5-min Rain = 0
KSDS 130545Z 32007KT 23/14 A2997 RMK A01 T02310139  RH  059%=      5-min Rain = 0
KSDS 130550Z 32008KT 23/14 A2997 RMK A01 T02300139  RH  059%=      5-min Rain = 0
KSDS 130555Z 32007KT 23/14 A2997 RMK A01 T02290140  RH  059%=      5-min Rain = 0
KSDS 130600Z 35011G20KT 23/14 A2998 RMK A01 T02340141  RH  059%=      5-min Rain = 0
KSDS 130605Z 35011KT 25/14 A2998 RMK A01 T02490143  RH  054%=      5-min Rain = 0
KSDS 130610Z 36010G15KT 25/15 A2999 RMK A01 T02520146  RH  054%=      5-min Rain = 0
KSDS 130615Z 01011G16KT 25/15 A2999 RMK A01 T02520147  RH  055%=      5-min Rain = 0
KSDS 130620Z 01009G14KT 25/15 A2999 RMK A01 T02510148  RH  055%=      5-min Rain = 0
KSDS 130625Z 00010KT 25/15 A2999 RMK A01 T02490149  RH  056%=      5-min Rain = 0
KSDS 130630Z 00010KT 25/15 A2999 RMK A01 T02480149  RH  057%=      5-min Rain = 0
KSDS 130635Z 00009KT 25/15 A2999 RMK A01 T02470150  RH  057%=      5-min Rain = 0
KSDS 130640Z 01010KT 25/15 A30 RMK A01 T02460151  RH  058%=      5-min Rain = 0
KSDS 130645Z 02010KT 25/15 A2999 RMK A01 T02450152  RH  059%=      5-min Rain = 0
KSDS 130650Z 02010G16KT 25/15 A2999 RMK A01 T02450153  RH  059%=      5-min Rain = 0
KSDS 130655Z 02011KT 25/15 A30 RMK A01 T02450154  RH  060%=      5-min Rain = 0
KSDS 130700Z 02010KT 24/15 A30 RMK A01 T02440154  RH  060%=      5-min Rain = 0
KSDS 130705Z 02009KT 24/16 A2999 RMK A01 T02420155  RH  061%=      5-min Rain = 0
KSDS 130710Z 01011KT 24/16 A30 RMK A01 T02420156  RH  062%=      5-min Rain = 0
KSDS 130715Z 01009KT 24/16 A30 RMK A01 T02410157  RH  062%=      5-min Rain = 0
KSDS 130720Z 01009G14KT 24/16 A30 RMK A01 T02390157  RH  063%=      5-min Rain = 0
KSDS 130725Z 01009KT 24/16 A30 RMK A01 T02380157  RH  063%=      5-min Rain = 0
KSDS 130730Z 01009KT 24/16 A30 RMK A01 T02360157  RH  064%=      5-min Rain = 0
KSDS 130735Z 01008KT 23/16 A30 RMK A01 T02340158  RH  065%=      5-min Rain = 0
KSDS 130740Z 01009KT 23/16 A30 RMK A01 T02330159  RH  066%=      5-min Rain = 0
KSDS 130745Z 02008KT 23/16 A30 RMK A01 T02320159  RH  067%=      5-min Rain = 0
KSDS 130750Z 02009KT 23/16 A30 RMK A01 T02310160  RH  067%=      5-min Rain = 0
KSDS 130755Z 03010KT 23/16 A30 RMK A01 T02320160  RH  067%=      5-min Rain = 0
KSDS 130800Z 03009KT 23/16 A30 RMK A01 T02320160  RH  067%=      5-min Rain = 0
KSDS 130805Z 03010KT 23/16 A30 RMK A01 T02320160  RH  067%=      5-min Rain = 0
KSDS 130810Z 03010KT 23/16 A30 RMK A01 T02310160  RH  067%=      5-min Rain = 0
KSDS 130815Z 03008KT 23/16 A30 RMK A01 T02290159  RH  068%=      5-min Rain = 0
KSDS 130820Z 02008KT 23/16 A30 RMK A01 T02270159  RH  069%=      5-min Rain = 0
KSDS 130825Z 02009KT 23/16 A30 RMK A01 T02260159  RH  069%=      5-min Rain = 0
KSDS 130830Z 02009KT 23/16 A30 RMK A01 T02250159  RH  069%=      5-min Rain = 0
KSDS 130835Z 03009KT 23/16 A30 RMK A01 T02250159  RH  070%=      5-min Rain = 0
KSDS 130840Z 03008KT 22/16 A30 RMK A01 T02230160  RH  070%=      5-min Rain = 0
KSDS 130845Z 03008KT 22/16 A3001 RMK A01 T02220160  RH  071%=      5-min Rain = 0
KSDS 130850Z 02007KT 22/16 A3001 RMK A01 T02210160  RH  072%=      5-min Rain = 0
KSDS 130855Z 02008KT 22/16 A3001 RMK A01 T02190160  RH  073%=      5-min Rain = 0
KSDS 130900Z 02008KT 22/16 A3001 RMK A01 T02180160  RH  073%=      5-min Rain = 0
KSDS 130905Z 02009KT 22/16 A3001 RMK A01 T02170160  RH  074%=      5-min Rain = 0
KSDS 130910Z 02009KT 22/16 A3001 RMK A01 T02180161  RH  073%=      5-min Rain = 0
KSDS 130915Z 03008KT 22/16 A3001 RMK A01 T02190161  RH  073%=      5-min Rain = 0
KSDS 130920Z 03007KT 22/16 A3001 RMK A01 T02170161  RH  074%=      5-min Rain = 0
KSDS 130925Z 02008KT 22/16 A3001 RMK A01 T02160162  RH  075%=      5-min Rain = 0
KSDS 130930Z 01008KT 21/16 A3001 RMK A01 T02140162  RH  075%=      5-min Rain = 0
KSDS 130935Z 00008KT 21/16 A3001 RMK A01 T02120161  RH  076%=      5-min Rain = 0
KSDS 130940Z 00008KT 21/16 A3001 RMK A01 T02100161  RH  077%=      5-min Rain = 0
KSDS 130945Z 01008KT 21/16 A3001 RMK A01 T02080161  RH  078%=      5-min Rain = 0
KSDS 130950Z 01008KT 21/16 A3001 RMK A01 T02080161  RH  079%=      5-min Rain = 0
KSDS 130955Z 02007KT 21/16 A3001 RMK A01 T02070161  RH  079%=      5-min Rain = 0
KSDS 131000Z 02006KT 21/16 A3002 RMK A01 T02050161  RH  080%=      5-min Rain = 0
KSDS 131005Z 01007KT 20/16 A3002 RMK A01 T02030161  RH  081%=      5-min Rain = 0
KSDS 131010Z 02008KT 20/16 A3002 RMK A01 T02020162  RH  081%=      5-min Rain = 0
KSDS 131015Z 02007KT 20/16 A3002 RMK A01 T02030162  RH  082%=      5-min Rain = 0
KSDS 131020Z 02006KT 20/16 A3002 RMK A01 T02020162  RH  082%=      5-min Rain = 0
KSDS 131025Z 02006KT 20/16 A3003 RMK A01 T02010162  RH  082%=      5-min Rain = 0
KSDS 131030Z 02004KT 20/16 A3003 RMK A01 T02000162  RH  083%=      5-min Rain = 0
KSDS 131035Z 03002KT 20/16 A3004 RMK A01 T01980161  RH  083%=      5-min Rain = 0
KSDS 131040Z 02002KT 20/16 A3004 RMK A01 T01980161  RH  083%=      5-min Rain = 0
KSDS 131045Z 36004KT 20/16 A3004 RMK A01 T01950160  RH  084%=      5-min Rain = 0
KSDS 131050Z 00007KT 19/16 A3004 RMK A01 T01930161  RH  086%=      5-min Rain = 0
KSDS 131055Z 01006KT 19/16 A3004 RMK A01 T01930162  RH  086%=      5-min Rain = 0
KSDS 131100Z 01005KT 19/16 A3004 RMK A01 T01930162  RH  087%=      5-min Rain = 0
KSDS 131105Z 01005KT 19/16 A3005 RMK A01 T01930163  RH  087%=      5-min Rain = 0
KSDS 131110Z 00007KT 19/16 A3005 RMK A01 T01920163  RH  087%=      5-min Rain = 0
KSDS 131115Z 36008KT 19/16 A3005 RMK A01 T01920163  RH  087%=      5-min Rain = 0
KSDS 131120Z 36008KT 19/16 A3005 RMK A01 T01920163  RH  088%=      5-min Rain = 0
KSDS 131125Z 01007KT 19/16 A3005 RMK A01 T01920164  RH  088%=      5-min Rain = 0
KSDS 131130Z 36006KT 19/16 A3006 RMK A01 T01920164  RH  088%=      5-min Rain = 0
KSDS 131135Z 36007KT 19/16 A3005 RMK A01 T01910164  RH  088%=      5-min Rain = 0
KSDS 131140Z 00006KT 19/16 A3006 RMK A01 T01910164  RH  089%=      5-min Rain = 0
KSDS 131145Z 00006KT 19/16 A3006 RMK A01 T01900163  RH  089%=      5-min Rain = 0
KSDS 131150Z 36007KT 19/16 A3005 RMK A01 T01890163  RH  089%=      5-min Rain = 0
KSDS 131155Z 36008KT 19/16 A3006 RMK A01 T01880164  RH  090%=      5-min Rain = 0
KSDS 131200Z 35007KT 19/16 A3006 RMK A01 T01880164  RH  090%=      5-min Rain = 0
KSDS 131205Z 36007KT 19/16 A3006 RMK A01 T01870164  RH  091%=      5-min Rain = 0
KSDS 131210Z 36007KT 19/16 A3006 RMK A01 T01870164  RH  091%=      5-min Rain = 0
KSDS 131215Z 36006KT 19/16 A3006 RMK A01 T01860164  RH  091%=      5-min Rain = 0
KSDS 131220Z 35007KT 19/16 A3006 RMK A01 T01860164  RH  091%=      5-min Rain = 0
KSDS 131225Z 35007KT 19/17 A3006 RMK A01 T01870165  RH  091%=      5-min Rain = 0
KSDS 131230Z 35006KT 19/17 A3007 RMK A01 T01880166  RH  091%=      5-min Rain = 0
KSDS 131235Z 35008KT 19/17 A3007 RMK A01 T01890167  RH  091%=      5-min Rain = 0
KSDS 131240Z 35007KT 19/17 A3007 RMK A01 T01910168  RH  091%=      5-min Rain = 0
KSDS 131245Z 00007KT 19/17 A3007 RMK A01 T01920169  RH  091%=      5-min Rain = 0
KSDS 131250Z 01008KT 19/17 A3007 RMK A01 T01940170  RH  090%=      5-min Rain = 0
KSDS 131255Z 01008KT 20/17 A3007 RMK A01 T01960170  RH  089%=      5-min Rain = 0
KSDS 131300Z 02008KT 20/17 A3007 RMK A01 T01980171  RH  089%=      5-min Rain = 0
KSDS 131305Z 02008KT 20/17 A3007 RMK A01 T02000171  RH  088%=      5-min Rain = 0
KSDS 131310Z 02008KT 20/17 A3007 RMK A01 T02040173  RH  086%=      5-min Rain = 0
KSDS 131315Z 02009KT 21/17 A3007 RMK A01 T02080173  RH  084%=      5-min Rain = 0
KSDS 131320Z 03011KT 21/17 A3007 RMK A01 T02090172  RH  084%=      5-min Rain = 0
KSDS 131325Z 02012KT 21/17 A3007 RMK A01 T02080172  RH  084%=      5-min Rain = 0
KSDS 131330Z 02011KT 21/17 A3007 RMK A01 T02080173  RH  084%=      5-min Rain = 0
KSDS 131335Z 02011KT 21/17 A3008 RMK A01 T02120174  RH  083%=      5-min Rain = 0
KSDS 131340Z 03010KT 22/17 A3008 RMK A01 T02170174  RH  081%=      5-min Rain = 0
KSDS 131345Z 01012KT 22/17 A3008 RMK A01 T02170174  RH  080%=      5-min Rain = 0
KSDS 131350Z 01013KT 22/17 A3008 RMK A01 T02180173  RH  080%=      5-min Rain = 0
KSDS 131355Z 01012KT 22/17 A3008 RMK A01 T02180173  RH  080%=      5-min Rain = 0
KSDS 131400Z 01012KT 22/17 A3008 RMK A01 T02170173  RH  080%=      5-min Rain = 0
KSDS 131405Z 00011KT 22/17 A3007 RMK A01 T02160173  RH  080%=      5-min Rain = 0
KSDS 131410Z 02011G16KT 22/17 A3008 RMK A01 T02200174  RH  079%=      5-min Rain = 0
KSDS 131415Z 02011KT 22/17 A3008 RMK A01 T02210173  RH  079%=      5-min Rain = 0
KSDS 131420Z 02011KT 23/18 A3009 RMK A01 T02250175  RH  077%=      5-min Rain = 0
KSDS 131425Z 02009KT 23/18 A3009 RMK A01 T02270175  RH  076%=      5-min Rain = 0
KSDS 131430Z 02011KT 23/18 A3009 RMK A01 T02300175  RH  075%=      5-min Rain = 0
KSDS 131435Z 02011KT 23/18 A3009 RMK A01 T02330175  RH  073%=      5-min Rain = 0
KSDS 131440Z 02011KT 24/18 A3009 RMK A01 T02360175  RH  072%=      5-min Rain = 0
KSDS 131445Z 01010KT 24/18 A3009 RMK A01 T02380176  RH  072%=      5-min Rain = 0
KSDS 131450Z 01009G14KT 24/18 A3009 RMK A01 T02430176  RH  070%=      5-min Rain = 0
KSDS 131455Z 02009G14KT 24/18 A301 RMK A01 T02420177  RH  070%=      5-min Rain = 0
KSDS 131500Z 04011KT 24/18 A301 RMK A01 T02440176  RH  069%=      5-min Rain = 0
KSDS 131505Z 02011G16KT 25/18 A301 RMK A01 T02450176  RH  069%=      5-min Rain = 0
KSDS 131510Z 03011KT 25/18 A301 RMK A01 T02460176  RH  069%=      5-min Rain = 0
KSDS 131515Z 03009KT 25/18 A301 RMK A01 T02490177  RH  068%=      5-min Rain = 0
KSDS 131520Z 03008KT 25/18 A301 RMK A01 T02500177  RH  067%=      5-min Rain = 0
KSDS 131525Z 02010KT 26/18 A301 RMK A01 T02550177  RH  066%=      5-min Rain = 0
KSDS 131530Z 02009G14KT 25/18 A301 RMK A01 T02530178  RH  066%=      5-min Rain = 0
KSDS 131535Z 02010KT 26/18 A301 RMK A01 T02550177  RH  066%=      5-min Rain = 0
KSDS 131540Z 02008KT 26/18 A301 RMK A01 T02620179  RH  064%=      5-min Rain = 0
KSDS 131545Z 03008G13KT 27/18 A301 RMK A01 T02650179  RH  062%=      5-min Rain = 0
KSDS 131550Z 03009G14KT 27/18 A3011 RMK A01 T02660178  RH  062%=      5-min Rain = 0
KSDS 131555Z 04010KT 27/18 A3011 RMK A01 T02670178  RH  061%=      5-min Rain = 0
KSDS 131600Z 03010KT 27/18 A3011 RMK A01 T02690177  RH  060%=      5-min Rain = 0
KSDS 131605Z 03009G14KT 27/18 A3011 RMK A01 T02670177  RH  061%=      5-min Rain = 0
KSDS 131610Z 03009KT 27/18 A3011 RMK A01 T02720176  RH  059%=      5-min Rain = 0
KSDS 131615Z 01009KT 28/18 A3011 RMK A01 T02760176  RH  057%=      5-min Rain = 0
KSDS 131620Z 03009G14KT 28/18 A3011 RMK A01 T02750176  RH  058%=      5-min Rain = 0
KSDS 131625Z 02009KT 28/18 A3011 RMK A01 T02780175  RH  056%=      5-min Rain = 0
KSDS 131630Z 03009KT 28/18 A3011 RMK A01 T02840177  RH  055%=      5-min Rain = 0
KSDS 131635Z 02010G15KT 28/17 A3011 RMK A01 T02820174  RH  055%=      5-min Rain = 0
KSDS 131640Z 03010G15KT 28/18 A3011 RMK A01 T02820175  RH  055%=      5-min Rain = 0
KSDS 131645Z 03009KT 29/18 A3012 RMK A01 T02870176  RH  054%=      5-min Rain = 0
KSDS 131650Z 02012G17KT 29/17 A3012 RMK A01 T02890173  RH  052%=      5-min Rain = 0
KSDS 131655Z 04011KT 29/17 A3012 RMK A01 T02890172  RH  052%=      5-min Rain = 0
KSDS 131700Z 03009KT 29/18 A3012 RMK A01 T02940175  RH  051%=      5-min Rain = 0
KSDS 131705Z 04012G17KT 30/17 A3012 RMK A01 T02950173  RH  050%=      5-min Rain = 0
KSDS 131710Z 03010G17KT 29/17 A3012 RMK A01 T02920173  RH  051%=      5-min Rain = 0
KSDS 131715Z 01012KT 30/17 A3012 RMK A01 T02970171  RH  049%=      5-min Rain = 0
KSDS 131720Z 02011G16KT 30/17 A3012 RMK A01 T02990173  RH  049%=      5-min Rain = 0
KSDS 131725Z 03009G17KT 30/18 A3012 RMK A01 T03030175  RH  049%=      5-min Rain = 0
KSDS 131730Z 04012G18KT 30/17 A3012 RMK A01 T03040173  RH  048%=      5-min Rain = 0
KSDS 131735Z 02011KT 31/17 A3012 RMK A01 T03050173  RH  048%=      5-min Rain = 0
KSDS 131740Z 04011KT 31/17 A3012 RMK A01 T03060173  RH  047%=      5-min Rain = 0
KSDS 131745Z 04010KT 31/17 A3011 RMK A01 T03080173  RH  047%=      5-min Rain = 0
KSDS 131750Z 04011G18KT 31/17 A3011 RMK A01 T03060174  RH  047%=      5-min Rain = 0
KSDS 131755Z 03010G16KT 30/17 A3012 RMK A01 T03020172  RH  048%=      5-min Rain = 0
KSDS 131800Z 04013G18KT 30/17 A3012 RMK A01 T03030171  RH  047%=      5-min Rain = 0
KSDS 131805Z 04013G18KT 31/17 A3012 RMK A01 T03070172  RH  047%=      5-min Rain = 0
KSDS 131810Z 04011G16KT 31/17 A3011 RMK A01 T03110173  RH  046%=      5-min Rain = 0
KSDS 131815Z 05013KT 32/17 A3011 RMK A01 T03170172  RH  044%=      5-min Rain = 0
KSDS 131820Z 04013G20KT 32/17 A3011 RMK A01 T03150171  RH  044%=      5-min Rain = 0
KSDS 131825Z 04014G21KT 32/17 A3011 RMK A01 T03150168  RH  044%=      5-min Rain = 0
KSDS 131830Z 04012G17KT 30/17 A3011 RMK A01 T03030168  RH  047%=      5-min Rain = 0
KSDS 131835Z 05010G16KT 31/17 A3012 RMK A01 T03140171  RH  045%=      5-min Rain = 0
KSDS 131840Z 05013G19KT 32/17 A3011 RMK A01 T03180171  RH  044%=      5-min Rain = 0
KSDS 131845Z 04013G19KT 32/17 A3012 RMK A01 T03190170  RH  043%=      5-min Rain = 0
KSDS 131850Z 04012G17KT 32/17 A3012 RMK A01 T03210169  RH  042%=      5-min Rain = 0
KSDS 131855Z 05012G17KT 32/17 A3012 RMK A01 T03180170  RH  043%=      5-min Rain = 0
KSDS 131900Z 06012G18KT 32/17 A3011 RMK A01 T03160168  RH  043%=      5-min Rain = 0
KSDS 131905Z 05013G20KT 32/17 A3011 RMK A01 T03200170  RH  043%=      5-min Rain = 0
KSDS 131910Z 06012G17KT 32/17 A3011 RMK A01 T03220171  RH  043%=      5-min Rain = 0
KSDS 131915Z 05012G19KT 32/17 A3011 RMK A01 T03210169  RH  042%=      5-min Rain = 0
KSDS 131920Z 05014KT 32/17 A3011 RMK A01 T03230169  RH  042%=      5-min Rain = 0
KSDS 131925Z 06010G15KT 33/17 A3011 RMK A01 T03250169  RH  041%=      5-min Rain = 0
KSDS 131930Z 05014G20KT 33/16 A3011 RMK A01 T03260164  RH  040%=      5-min Rain = 0
KSDS 131935Z 06012G20KT 32/16 A3011 RMK A01 T03230164  RH  040%=      5-min Rain = 0
KSDS 131940Z 07012KT 33/17 A3011 RMK A01 T03250165  RH  040%=      5-min Rain = 0
KSDS 131945Z 07013G19KT 33/17 A3011 RMK A01 T03280167  RH  040%=      5-min Rain = 0
KSDS 131950Z 06013G18KT 32/17 A301 RMK A01 T03240166  RH  041%=      5-min Rain = 0
KSDS 131955Z 06013G18KT 33/17 A301 RMK A01 T03270166  RH  040%=      5-min Rain = 0
KSDS 132000Z 05013G22KT 33/17 A301 RMK A01 T03310165  RH  039%=      5-min Rain = 0
KSDS 132005Z 05012G19KT 33/16 A301 RMK A01 T03280164  RH  039%=      5-min Rain = 0
KSDS 132010Z 07013G20KT 33/16 A301 RMK A01 T03310164  RH  039%=      5-min Rain = 0
KSDS 132015Z 06013G18KT 33/16 A301 RMK A01 T03280162  RH  039%=      5-min Rain = 0
KSDS 132020Z 07012G18KT 33/16 A301 RMK A01 T03280160  RH  038%=      5-min Rain = 0
KSDS 132025Z 07013G18KT 33/16 A301 RMK A01 T03280161  RH  038%=      5-min Rain = 0
KSDS 132030Z 05011G17KT 33/16 A3009 RMK A01 T03310164  RH  039%=      5-min Rain = 0
KSDS 132035Z 05015KT 33/16 A3009 RMK A01 T03340162  RH  037%=      5-min Rain = 0
KSDS 132040Z 06012G17KT 33/16 A3009 RMK A01 T03330163  RH  038%=      5-min Rain = 0
KSDS 132045Z 05012G17KT 33/16 A3009 RMK A01 T03330162  RH  038%=      5-min Rain = 0
KSDS 132050Z 06011KT 33/16 A3009 RMK A01 T03340162  RH  038%=      5-min Rain = 0
KSDS 132055Z 05013G20KT 34/16 A3008 RMK A01 T03370164  RH  037%=      5-min Rain = 0
KSDS 132100Z 08013G18KT 33/16 A3008 RMK A01 T03340161  RH  037%=      5-min Rain = 0
KSDS 132105Z 06011G19KT 33/16 A3008 RMK A01 T03340161  RH  037%=      5-min Rain = 0
KSDS 132110Z 06010G15KT 34/16 A3008 RMK A01 T03400162  RH  036%=      5-min Rain = 0
KSDS 132115Z 04010G17KT 34/16 A3008 RMK A01 T03400161  RH  036%=      5-min Rain = 0
KSDS 132120Z 06012G17KT 34/16 A3008 RMK A01 T03370160  RH  036%=      5-min Rain = 0
KSDS 132125Z 07012G18KT 34/16 A3008 RMK A01 T03390160  RH  036%=      5-min Rain = 0
KSDS 132130Z 06009G14KT 34/16 A3007 RMK A01 T03400160  RH  036%=      5-min Rain = 0
KSDS 132135Z 07010G16KT 34/16 A3007 RMK A01 T03390160  RH  036%=      5-min Rain = 0
KSDS 132140Z 06011G18KT 34/16 A3007 RMK A01 T03370160  RH  036%=      5-min Rain = 0
KSDS 132145Z 06012G18KT 34/16 A3007 RMK A01 T03370157  RH  036%=      5-min Rain = 0
KSDS 132150Z 05012KT 34/16 A3007 RMK A01 T03360156  RH  036%=      5-min Rain = 0
KSDS 132155Z 08011G19KT 34/16 A3006 RMK A01 T03370157  RH  036%=      5-min Rain = 0
KSDS 132200Z 08010G16KT 34/16 A3006 RMK A01 T03390157  RH  035%=      5-min Rain = 0
KSDS 132205Z 06012G17KT 33/16 A3006 RMK A01 T03340157  RH  036%=      5-min Rain = 0
KSDS 132210Z 05012G21KT 34/16 A3006 RMK A01 T03360158  RH  036%=      5-min Rain = 0
KSDS 132215Z 08010KT 34/16 A3006 RMK A01 T03370157  RH  036%=      5-min Rain = 0
KSDS 132220Z 08009KT 34/16 A3006 RMK A01 T03370156  RH  035%=      5-min Rain = 0
KSDS 132225Z 06010G15KT 34/15 A3006 RMK A01 T03370154  RH  035%=      5-min Rain = 0
KSDS 132230Z 08009G14KT 33/15 A3006 RMK A01 T03340154  RH  036%=      5-min Rain = 0
KSDS 132235Z 08011G17KT 34/16 A3006 RMK A01 T03350157  RH  036%=      5-min Rain = 0
KSDS 132240Z 07010G16KT 34/16 A3006 RMK A01 T03360157  RH  036%=      5-min Rain = 0
KSDS 132245Z 08011G18KT 33/16 A3005 RMK A01 T03330155  RH  036%=      5-min Rain = 0
KSDS 132250Z 10009G16KT 34/16 A3005 RMK A01 T03350156  RH  036%=      5-min Rain = 0
KSDS 132255Z 08010G16KT 33/16 A3005 RMK A01 T03340155  RH  036%=      5-min Rain = 0
KSDS 132300Z 08012G17KT 33/15 A3005 RMK A01 T03330154  RH  036%=      5-min Rain = 0
KSDS 132305Z 07011KT 33/15 A3006 RMK A01 T03320153  RH  036%=      5-min Rain = 0
KSDS 132310Z 08009G16KT 33/16 A3006 RMK A01 T03320155  RH  036%=      5-min Rain = 0
KSDS 132315Z 07012KT 33/16 A3006 RMK A01 T03320155  RH  036%=      5-min Rain = 0
KSDS 132320Z 06013KT 33/15 A3006 RMK A01 T03300153  RH  036%=      5-min Rain = 0
KSDS 132325Z 06011KT 33/15 A3006 RMK A01 T03290152  RH  036%=      5-min Rain = 0
KSDS 132330Z 07010KT 33/15 A3006 RMK A01 T03300152  RH  036%=      5-min Rain = 0
KSDS 132335Z 06009KT 33/15 A3006 RMK A01 T03300149  RH  035%=      5-min Rain = 0
KSDS 132340Z 06007KT 33/15 A3005 RMK A01 T03300151  RH  036%=      5-min Rain = 0
KSDS 132345Z 08011G18KT 33/15 A3005 RMK A01 T03310154  RH  036%=      5-min Rain = 0
KSDS 132350Z 07010KT 33/15 A3005 RMK A01 T03290154  RH  037%=      5-min Rain = 0
KSDS 132355Z 08010KT 33/15 A3005 RMK A01 T03280154  RH  037%=      5-min Rain = 0
KSDS 140000Z 07009KT 33/15 A3005 RMK A01 T03280153  RH  037%=      5-min Rain = 0
KSDS 140005Z 07008G14KT 33/15 A3005 RMK A01 T03260152  RH  037%=      5-min Rain = 0
KSDS 140010Z 06010G15KT 33/15 A3005 RMK A01 T03260153  RH  037%=      5-min Rain = 0
KSDS 140015Z 08010G16KT 33/15 A3006 RMK A01 T03250152  RH  037%=      5-min Rain = 0
KSDS 140020Z 08008KT 32/15 A3006 RMK A01 T03230152  RH  037%=      5-min Rain = 0
KSDS 140025Z 07009KT 32/15 A3006 RMK A01 T03230151  RH  037%=      5-min Rain = 0
KSDS 140030Z 06009KT 32/15 A3006 RMK A01 T03210150  RH  037%=      5-min Rain = 0
KSDS 140035Z 06011KT 32/15 A3007 RMK A01 T03200149  RH  037%=      5-min Rain = 0
KSDS 140040Z 06010KT 32/15 A3007 RMK A01 T03180150  RH  038%=      5-min Rain = 0
KSDS 140045Z 07008KT 32/15 A3007 RMK A01 T03160150  RH  038%=      5-min Rain = 0
KSDS 140050Z 07007KT 31/15 A3007 RMK A01 T03110148  RH  039%=      5-min Rain = 0
KSDS 140055Z 07007KT 31/15 A3007 RMK A01 T03070148  RH  040%=      5-min Rain = 0
KSDS 140100Z 07007KT 30/15 A3007 RMK A01 T03040148  RH  040%=      5-min Rain = 0
KSDS 140105Z 07007KT 30/15 A3007 RMK A01 T03010150  RH  042%=      5-min Rain = 0
KSDS 140110Z 07007KT 30/15 A3008 RMK A01 T03000151  RH  042%=      5-min Rain = 0
KSDS 140115Z 07005KT 30/15 A3008 RMK A01 T02980152  RH  043%=      5-min Rain = 0
KSDS 140120Z 08006KT 30/15 A3007 RMK A01 T02960152  RH  044%=      5-min Rain = 0
KSDS 140125Z 07006KT 29/15 A3007 RMK A01 T02940152  RH  044%=      5-min Rain = 0
KSDS 140130Z 07006KT 29/15 A3008 RMK A01 T02940152  RH  044%=      5-min Rain = 0
KSDS 140135Z 07006KT 29/15 A3008 RMK A01 T02920152  RH  045%=      5-min Rain = 0
KSDS 140140Z 08007KT 29/15 A3008 RMK A01 T02900152  RH  045%=      5-min Rain = 0
KSDS 140145Z 08007KT 29/15 A3008 RMK A01 T02890153  RH  045%=      5-min Rain = 0
KSDS 140150Z 09006KT 29/15 A3008 RMK A01 T02880153  RH  046%=      5-min Rain = 0
KSDS 140155Z 09006KT 29/15 A3008 RMK A01 T02860154  RH  047%=      5-min Rain = 0
KSDS 140200Z 08006KT 28/15 A3008 RMK A01 T02830154  RH  048%=      5-min Rain = 0
KSDS 140205Z 08006KT 28/15 A3009 RMK A01 T02810154  RH  048%=      5-min Rain = 0
KSDS 140210Z 08006KT 28/15 A3009 RMK A01 T02790154  RH  049%=      5-min Rain = 0
KSDS 140215Z 08007KT 28/16 A3009 RMK A01 T02770155  RH  050%=      5-min Rain = 0
KSDS 140220Z 08007KT 28/16 A3009 RMK A01 T02760155  RH  050%=      5-min Rain = 0
KSDS 140225Z 07006KT 27/16 A3009 RMK A01 T02730155  RH  051%=      5-min Rain = 0
KSDS 140230Z 07007KT 27/16 A301 RMK A01 T02710155  RH  052%=      5-min Rain = 0
KSDS 140235Z 07007KT 27/16 A301 RMK A01 T02700155  RH  052%=      5-min Rain = 0
KSDS 140240Z 07007KT 27/16 A301 RMK A01 T02690155  RH  052%=      5-min Rain = 0
KSDS 140245Z 06007KT 27/16 A3011 RMK A01 T02690155  RH  052%=      5-min Rain = 0
KSDS 140250Z 06006KT 27/16 A3011 RMK A01 T02680155  RH  052%=      5-min Rain = 0
KSDS 140255Z 06007KT 27/16 A3011 RMK A01 T02680155  RH  052%=      5-min Rain = 0
KSDS 140300Z 06007KT 27/16 A3011 RMK A01 T02690155  RH  052%=      5-min Rain = 0
KSDS 140305Z 07007KT 27/16 A3012 RMK A01 T02690155  RH  052%=      5-min Rain = 0
KSDS 140310Z 06007KT 27/16 A3012 RMK A01 T02680155  RH  052%=      5-min Rain = 0
KSDS 140315Z 06007KT 27/16 A3012 RMK A01 T02670155  RH  053%=      5-min Rain = 0
KSDS 140320Z 06006KT 27/16 A3012 RMK A01 T02650156  RH  054%=      5-min Rain = 0
KSDS 140325Z 06006KT 26/16 A3012 RMK A01 T02610156  RH  055%=      5-min Rain = 0
KSDS 140330Z 06006KT 26/16 A3013 RMK A01 T02600156  RH  055%=      5-min Rain = 0
KSDS 140335Z 06007KT 26/16 A3013 RMK A01 T02580156  RH  056%=      5-min Rain = 0
KSDS 140340Z 06006KT 26/16 A3013 RMK A01 T02570157  RH  056%=      5-min Rain = 0
KSDS 140345Z 06006KT 26/16 A3013 RMK A01 T02550157  RH  057%=      5-min Rain = 0
KSDS 140350Z 07006KT 25/16 A3014 RMK A01 T02530157  RH  058%=      5-min Rain = 0
KSDS 140355Z 06006KT 25/16 A3014 RMK A01 T02520157  RH  058%=      5-min Rain = 0
KSDS 140400Z 07006KT 25/16 A3014 RMK A01 T02510157  RH  059%=      5-min Rain = 0
KSDS 140405Z 07006KT 25/16 A3014 RMK A01 T02530158  RH  058%=      5-min Rain = 0
KSDS 140410Z 07006KT 25/16 A3014 RMK A01 T02510158  RH  059%=      5-min Rain = 0
KSDS 140415Z 07006KT 25/16 A3015 RMK A01 T02490158  RH  060%=      5-min Rain = 0
KSDS 140420Z 06006KT 25/16 A3015 RMK A01 T02470158  RH  061%=      5-min Rain = 0
KSDS 140425Z 06006KT 24/16 A3015 RMK A01 T02440158  RH  061%=      5-min Rain = 0
KSDS 140430Z 06006KT 25/16 A3015 RMK A01 T02450158  RH  061%=      5-min Rain = 0
KSDS 140435Z 06006KT 25/16 A3015 RMK A01 T02450158  RH  061%=      5-min Rain = 0
KSDS 140440Z 06007KT 24/16 A3015 RMK A01 T02430159  RH  062%=      5-min Rain = 0
KSDS 140445Z 06007KT 24/16 A3015 RMK A01 T02420159  RH  062%=      5-min Rain = 0
KSDS 140450Z 07007KT 24/16 A3015 RMK A01 T02430159  RH  062%=      5-min Rain = 0
KSDS 140455Z 07006KT 24/16 A3015 RMK A01 T02420159  RH  063%=      5-min Rain = 0

Page generated in 0.0691 seconds.